sensor_id;sensor_type;location;lat;lon;timestamp;temperature;humidity
21193;DHT22;10754;51.106;7.164;2022-11-04T00:01:53;14.30;1.00
21193;DHT22;10754;51.106;7.164;2022-11-04T00:04:20;14.20;1.00
21193;DHT22;10754;51.106;7.164;2022-11-04T00:06:46;14.20;1.00
21193;DHT22;10754;51.106;7.164;2022-11-04T00:09:24;14.20;1.00
21193;DHT22;10754;51.106;7.164;2022-11-04T00:11:51;14.30;1.00
21193;DHT22;10754;51.106;7.164;2022-11-04T00:14:35;14.30;1.00
21193;DHT22;10754;51.106;7.164;2022-11-04T00:17:02;14.40;1.00
21193;DHT22;10754;51.106;7.164;2022-11-04T00:19:48;14.40;1.00
21193;DHT22;10754;51.106;7.164;2022-11-04T00:22:33;14.30;1.00
21193;DHT22;10754;51.106;7.164;2022-11-04T00:25:18;14.40;1.00
21193;DHT22;10754;51.106;7.164;2022-11-04T00:28:24;14.50;1.00
21193;DHT22;10754;51.106;7.164;2022-11-04T00:31:08;14.40;1.00
21193;DHT22;10754;51.106;7.164;2022-11-04T00:33:54;14.40;1.00
21193;DHT22;10754;51.106;7.164;2022-11-04T00:36:20;14.40;1.00
21193;DHT22;10754;51.106;7.164;2022-11-04T00:38:47;14.40;1.00
21193;DHT22;10754;51.106;7.164;2022-11-04T00:41:12;14.50;1.00
21193;DHT22;10754;51.106;7.164;2022-11-04T00:43:54;14.30;1.00
21193;DHT22;10754;51.106;7.164;2022-11-04T00:46:20;14.40;1.00
21193;DHT22;10754;51.106;7.164;2022-11-04T00:48:46;14.40;1.00
21193;DHT22;10754;51.106;7.164;2022-11-04T00:51:12;14.40;1.00
21193;DHT22;10754;51.106;7.164;2022-11-04T00:53:38;14.40;1.00
21193;DHT22;10754;51.106;7.164;2022-11-04T00:56:03;14.30;1.00
21193;DHT22;10754;51.106;7.164;2022-11-04T00:58:29;14.30;1.00
21193;DHT22;10754;51.106;7.164;2022-11-04T01:00:54;14.40;1.00
21193;DHT22;10754;51.106;7.164;2022-11-04T01:03:20;14.50;1.00
21193;DHT22;10754;51.106;7.164;2022-11-04T01:05:45;14.40;1.00
21193;DHT22;10754;51.106;7.164;2022-11-04T01:08:11;14.30;1.00
21193;DHT22;10754;51.106;7.164;2022-11-04T01:10:36;14.40;1.00
21193;DHT22;10754;51.106;7.164;2022-11-04T01:13:09;14.50;1.00
21193;DHT22;10754;51.106;7.164;2022-11-04T01:15:36;14.50;1.00
21193;DHT22;10754;51.106;7.164;2022-11-04T01:18:02;14.50;1.00
21193;DHT22;10754;51.106;7.164;2022-11-04T01:20:27;14.60;1.00
21193;DHT22;10754;51.106;7.164;2022-11-04T01:22:53;14.60;1.00
21193;DHT22;10754;51.106;7.164;2022-11-04T01:25:18;14.60;1.00
21193;DHT22;10754;51.106;7.164;2022-11-04T01:27:44;14.70;1.00
21193;DHT22;10754;51.106;7.164;2022-11-04T01:30:10;14.80;1.00
21193;DHT22;10754;51.106;7.164;2022-11-04T01:32:35;14.80;1.00
21193;DHT22;10754;51.106;7.164;2022-11-04T01:35:01;14.70;1.00
21193;DHT22;10754;51.106;7.164;2022-11-04T01:37:26;14.50;1.00
21193;DHT22;10754;51.106;7.164;2022-11-04T01:39:52;14.60;1.00
21193;DHT22;10754;51.106;7.164;2022-11-04T01:42:20;14.40;1.00
21193;DHT22;10754;51.106;7.164;2022-11-04T01:44:52;14.40;1.00
21193;DHT22;10754;51.106;7.164;2022-11-04T01:50:08;14.60;1.00
21193;DHT22;10754;51.106;7.164;2022-11-04T01:55:15;14.40;1.00
21193;DHT22;10754;51.106;7.164;2022-11-04T01:57:44;14.50;1.00
21193;DHT22;10754;51.106;7.164;2022-11-04T02:00:12;14.50;1.00
21193;DHT22;10754;51.106;7.164;2022-11-04T02:03:05;14.50;1.00
21193;DHT22;10754;51.106;7.164;2022-11-04T02:05:29;14.50;1.00
21193;DHT22;10754;51.106;7.164;2022-11-04T02:07:57;14.40;1.00
21193;DHT22;10754;51.106;7.164;2022-11-04T02:10:27;14.40;1.00
21193;DHT22;10754;51.106;7.164;2022-11-04T02:12:54;14.40;1.00
21193;DHT22;10754;51.106;7.164;2022-11-04T02:15:34;14.20;1.00
21193;DHT22;10754;51.106;7.164;2022-11-04T02:24:13;14.30;1.00
21193;DHT22;10754;51.106;7.164;2022-11-04T02:29:44;14.30;1.00
21193;DHT22;10754;51.106;7.164;2022-11-04T02:32:15;14.20;1.00
21193;DHT22;10754;51.106;7.164;2022-11-04T02:37:35;14.10;1.00
21193;DHT22;10754;51.106;7.164;2022-11-04T02:43:08;13.90;1.00
21193;DHT22;10754;51.106;7.164;2022-11-04T02:45:47;14.00;1.00
21193;DHT22;10754;51.106;7.164;2022-11-04T02:48:27;14.10;1.00
21193;DHT22;10754;51.106;7.164;2022-11-04T02:56:46;13.90;1.00
21193;DHT22;10754;51.106;7.164;2022-11-04T02:59:36;13.70;1.00
21193;DHT22;10754;51.106;7.164;2022-11-04T03:02:06;13.70;1.00
21193;DHT22;10754;51.106;7.164;2022-11-04T03:04:36;13.70;1.00
21193;DHT22;10754;51.106;7.164;2022-11-04T03:07:05;13.60;1.00
21193;DHT22;10754;51.106;7.164;2022-11-04T03:09:33;13.70;1.00
21193;DHT22;10754;51.106;7.164;2022-11-04T03:12:04;13.70;1.00
21193;DHT22;10754;51.106;7.164;2022-11-04T03:14:40;13.60;1.00
21193;DHT22;10754;51.106;7.164;2022-11-04T03:17:17;13.60;1.00
21193;DHT22;10754;51.106;7.164;2022-11-04T03:19:51;13.60;1.00
21193;DHT22;10754;51.106;7.164;2022-11-04T03:22:21;13.60;1.00
21193;DHT22;10754;51.106;7.164;2022-11-04T03:24:48;13.60;1.00
21193;DHT22;10754;51.106;7.164;2022-11-04T03:27:31;13.60;1.00
21193;DHT22;10754;51.106;7.164;2022-11-04T03:35:01;13.60;1.00
21193;DHT22;10754;51.106;7.164;2022-11-04T03:37:26;13.50;1.00
21193;DHT22;10754;51.106;7.164;2022-11-04T03:39:52;13.60;1.00
21193;DHT22;10754;51.106;7.164;2022-11-04T03:42:19;13.60;1.00
21193;DHT22;10754;51.106;7.164;2022-11-04T03:44:55;13.50;1.00
21193;DHT22;10754;51.106;7.164;2022-11-04T03:47:23;13.40;1.00
21193;DHT22;10754;51.106;7.164;2022-11-04T03:49:51;13.40;1.00
21193;DHT22;10754;51.106;7.164;2022-11-04T03:52:19;13.40;1.00
21193;DHT22;10754;51.106;7.164;2022-11-04T03:54:46;13.50;1.00
21193;DHT22;10754;51.106;7.164;2022-11-04T03:57:30;13.50;1.00
21193;DHT22;10754;51.106;7.164;2022-11-04T04:05:14;13.50;1.00
21193;DHT22;10754;51.106;7.164;2022-11-04T04:07:54;13.60;1.00
21193;DHT22;10754;51.106;7.164;2022-11-04T04:13:24;13.60;1.00
21193;DHT22;10754;51.106;7.164;2022-11-04T04:16:17;13.60;1.00
21193;DHT22;10754;51.106;7.164;2022-11-04T04:19:01;13.60;1.00
21193;DHT22;10754;51.106;7.164;2022-11-04T04:22:00;13.60;1.00
21193;DHT22;10754;51.106;7.164;2022-11-04T04:24:32;13.60;1.00
21193;DHT22;10754;51.106;7.164;2022-11-04T04:27:19;13.50;1.00
21193;DHT22;10754;51.106;7.164;2022-11-04T04:30:09;13.40;1.00
21193;DHT22;10754;51.106;7.164;2022-11-04T04:32:38;13.50;1.00
21193;DHT22;10754;51.106;7.164;2022-11-04T04:35:06;13.60;1.00
21193;DHT22;10754;51.106;7.164;2022-11-04T04:37:53;13.60;1.00
21193;DHT22;10754;51.106;7.164;2022-11-04T04:40:25;13.50;1.00
21193;DHT22;10754;51.106;7.164;2022-11-04T04:43:14;13.50;1.00
21193;DHT22;10754;51.106;7.164;2022-11-04T04:45:59;13.50;1.00
21193;DHT22;10754;51.106;7.164;2022-11-04T04:48:25;13.40;1.00
21193;DHT22;10754;51.106;7.164;2022-11-04T04:50:52;13.40;1.00
21193;DHT22;10754;51.106;7.164;2022-11-04T04:53:21;13.40;1.00
21193;DHT22;10754;51.106;7.164;2022-11-04T04:55:47;13.40;1.00
21193;DHT22;10754;51.106;7.164;2022-11-04T04:58:12;13.40;1.00
21193;DHT22;10754;51.106;7.164;2022-11-04T05:00:38;13.30;1.00
21193;DHT22;10754;51.106;7.164;2022-11-04T05:03:04;13.30;1.00
21193;DHT22;10754;51.106;7.164;2022-11-04T05:05:29;13.30;1.00
21193;DHT22;10754;51.106;7.164;2022-11-04T05:07:55;13.20;1.00
21193;DHT22;10754;51.106;7.164;2022-11-04T05:10:20;13.00;1.00
21193;DHT22;10754;51.106;7.164;2022-11-04T05:12:46;13.10;1.00
21193;DHT22;10754;51.106;7.164;2022-11-04T05:15:30;13.20;1.00
21193;DHT22;10754;51.106;7.164;2022-11-04T05:18:00;13.30;1.00
21193;DHT22;10754;51.106;7.164;2022-11-04T05:20:26;13.30;1.00
21193;DHT22;10754;51.106;7.164;2022-11-04T05:22:53;13.30;1.00
21193;DHT22;10754;51.106;7.164;2022-11-04T05:25:19;13.40;1.00
21193;DHT22;10754;51.106;7.164;2022-11-04T05:27:44;13.40;1.00
21193;DHT22;10754;51.106;7.164;2022-11-04T05:30:10;13.40;1.00
21193;DHT22;10754;51.106;7.164;2022-11-04T05:32:36;13.40;1.00
21193;DHT22;10754;51.106;7.164;2022-11-04T05:35:01;13.40;1.00
21193;DHT22;10754;51.106;7.164;2022-11-04T05:37:27;13.40;1.00
21193;DHT22;10754;51.106;7.164;2022-11-04T05:39:52;13.40;1.00
21193;DHT22;10754;51.106;7.164;2022-11-04T05:42:18;13.40;1.00
21193;DHT22;10754;51.106;7.164;2022-11-04T05:44:44;13.40;1.00
21193;DHT22;10754;51.106;7.164;2022-11-04T05:47:09;13.30;1.00
21193;DHT22;10754;51.106;7.164;2022-11-04T05:49:34;13.30;1.00
21193;DHT22;10754;51.106;7.164;2022-11-04T05:52:00;13.30;1.00
21193;DHT22;10754;51.106;7.164;2022-11-04T05:54:26;13.30;1.00
21193;DHT22;10754;51.106;7.164;2022-11-04T05:56:52;13.30;1.00
21193;DHT22;10754;51.106;7.164;2022-11-04T05:59:17;13.30;1.00
21193;DHT22;10754;51.106;7.164;2022-11-04T06:01:43;13.30;1.00
21193;DHT22;10754;51.106;7.164;2022-11-04T06:04:13;13.30;1.00
21193;DHT22;10754;51.106;7.164;2022-11-04T06:06:40;13.30;1.00
21193;DHT22;10754;51.106;7.164;2022-11-04T06:09:06;13.30;1.00
21193;DHT22;10754;51.106;7.164;2022-11-04T06:11:34;13.30;1.00
21193;DHT22;10754;51.106;7.164;2022-11-04T06:14:00;13.30;1.00
21193;DHT22;10754;51.106;7.164;2022-11-04T06:16:25;13.30;1.00
21193;DHT22;10754;51.106;7.164;2022-11-04T06:18:51;13.30;1.00
21193;DHT22;10754;51.106;7.164;2022-11-04T06:21:29;13.30;1.00
21193;DHT22;10754;51.106;7.164;2022-11-04T06:23:56;13.40;1.00
21193;DHT22;10754;51.106;7.164;2022-11-04T06:26:23;13.30;1.00
21193;DHT22;10754;51.106;7.164;2022-11-04T06:28:49;13.30;1.00
21193;DHT22;10754;51.106;7.164;2022-11-04T06:31:16;13.30;1.00
21193;DHT22;10754;51.106;7.164;2022-11-04T06:33:42;13.30;1.00
21193;DHT22;10754;51.106;7.164;2022-11-04T06:36:11;13.30;1.00
21193;DHT22;10754;51.106;7.164;2022-11-04T06:38:37;13.30;1.00
21193;DHT22;10754;51.106;7.164;2022-11-04T06:41:05;13.30;1.00
21193;DHT22;10754;51.106;7.164;2022-11-04T06:43:30;13.30;1.00
21193;DHT22;10754;51.106;7.164;2022-11-04T06:45:57;13.30;1.00
21193;DHT22;10754;51.106;7.164;2022-11-04T06:48:23;13.30;1.00
21193;DHT22;10754;51.106;7.164;2022-11-04T06:50:48;13.30;1.00
21193;DHT22;10754;51.106;7.164;2022-11-04T06:53:14;13.30;1.00
21193;DHT22;10754;51.106;7.164;2022-11-04T06:55:40;13.30;1.00
21193;DHT22;10754;51.106;7.164;2022-11-04T06:58:06;13.30;1.00
21193;DHT22;10754;51.106;7.164;2022-11-04T07:00:31;13.40;1.00
21193;DHT22;10754;51.106;7.164;2022-11-04T07:02:57;13.40;1.00
21193;DHT22;10754;51.106;7.164;2022-11-04T07:05:22;13.40;1.00
21193;DHT22;10754;51.106;7.164;2022-11-04T07:07:48;13.50;1.00
21193;DHT22;10754;51.106;7.164;2022-11-04T07:10:14;13.50;1.00
21193;DHT22;10754;51.106;7.164;2022-11-04T07:12:39;13.50;1.00
21193;DHT22;10754;51.106;7.164;2022-11-04T07:15:05;13.60;1.00
21193;DHT22;10754;51.106;7.164;2022-11-04T07:17:31;13.60;1.00
21193;DHT22;10754;51.106;7.164;2022-11-04T07:19:56;13.60;1.00
21193;DHT22;10754;51.106;7.164;2022-11-04T07:22:22;13.60;1.00
21193;DHT22;10754;51.106;7.164;2022-11-04T07:24:47;13.60;1.00
21193;DHT22;10754;51.106;7.164;2022-11-04T07:27:13;13.70;1.00
21193;DHT22;10754;51.106;7.164;2022-11-04T07:29:39;13.70;1.00
21193;DHT22;10754;51.106;7.164;2022-11-04T07:32:05;13.70;1.00
21193;DHT22;10754;51.106;7.164;2022-11-04T07:34:30;13.60;1.00
21193;DHT22;10754;51.106;7.164;2022-11-04T07:36:56;13.60;1.00
21193;DHT22;10754;51.106;7.164;2022-11-04T07:39:21;13.60;1.00
21193;DHT22;10754;51.106;7.164;2022-11-04T07:41:47;13.70;1.00
21193;DHT22;10754;51.106;7.164;2022-11-04T07:44:12;13.90;1.00
21193;DHT22;10754;51.106;7.164;2022-11-04T07:46:38;13.80;1.00
21193;DHT22;10754;51.106;7.164;2022-11-04T07:49:03;13.70;1.00
21193;DHT22;10754;51.106;7.164;2022-11-04T07:51:29;13.80;1.00
21193;DHT22;10754;51.106;7.164;2022-11-04T07:53:57;13.80;1.00
21193;DHT22;10754;51.106;7.164;2022-11-04T07:56:22;13.80;1.00
21193;DHT22;10754;51.106;7.164;2022-11-04T07:58:48;13.70;1.00
21193;DHT22;10754;51.106;7.164;2022-11-04T08:01:16;13.70;1.00
21193;DHT22;10754;51.106;7.164;2022-11-04T08:03:42;13.70;1.00
21193;DHT22;10754;51.106;7.164;2022-11-04T08:06:10;13.60;1.00
21193;DHT22;10754;51.106;7.164;2022-11-04T08:08:36;13.70;1.00
21193;DHT22;10754;51.106;7.164;2022-11-04T08:11:11;13.60;1.00
21193;DHT22;10754;51.106;7.164;2022-11-04T08:13:37;13.70;1.00
21193;DHT22;10754;51.106;7.164;2022-11-04T08:16:14;13.60;1.00
21193;DHT22;10754;51.106;7.164;2022-11-04T08:18:41;13.60;1.00
21193;DHT22;10754;51.106;7.164;2022-11-04T08:21:08;13.40;1.00
21193;DHT22;10754;51.106;7.164;2022-11-04T08:23:34;13.40;1.00
21193;DHT22;10754;51.106;7.164;2022-11-04T08:26:00;13.40;1.00
21193;DHT22;10754;51.106;7.164;2022-11-04T08:28:26;13.40;1.00
21193;DHT22;10754;51.106;7.164;2022-11-04T08:30:59;13.40;1.00
21193;DHT22;10754;51.106;7.164;2022-11-04T08:33:27;13.50;1.00
21193;DHT22;10754;51.106;7.164;2022-11-04T08:35:54;13.50;1.00
21193;DHT22;10754;51.106;7.164;2022-11-04T08:38:20;13.50;1.00
21193;DHT22;10754;51.106;7.164;2022-11-04T08:40:45;13.60;1.00
21193;DHT22;10754;51.106;7.164;2022-11-04T08:43:11;13.70;1.00
21193;DHT22;10754;51.106;7.164;2022-11-04T08:45:44;13.80;1.00
21193;DHT22;10754;51.106;7.164;2022-11-04T08:48:11;13.90;1.00
21193;DHT22;10754;51.106;7.164;2022-11-04T08:50:37;13.90;1.00
21193;DHT22;10754;51.106;7.164;2022-11-04T08:53:04;14.00;1.00
21193;DHT22;10754;51.106;7.164;2022-11-04T08:55:30;14.00;1.00
21193;DHT22;10754;51.106;7.164;2022-11-04T08:57:56;14.00;1.00
21193;DHT22;10754;51.106;7.164;2022-11-04T09:00:21;14.00;1.00
21193;DHT22;10754;51.106;7.164;2022-11-04T09:02:47;14.10;1.00
21193;DHT22;10754;51.106;7.164;2022-11-04T09:05:13;14.10;1.00
21193;DHT22;10754;51.106;7.164;2022-11-04T09:07:40;14.10;1.00
21193;DHT22;10754;51.106;7.164;2022-11-04T09:10:07;14.10;1.00
21193;DHT22;10754;51.106;7.164;2022-11-04T09:12:33;14.20;1.00
21193;DHT22;10754;51.106;7.164;2022-11-04T09:14:59;14.30;1.00
21193;DHT22;10754;51.106;7.164;2022-11-04T09:17:24;14.30;1.00
21193;DHT22;10754;51.106;7.164;2022-11-04T09:19:50;14.30;1.00
21193;DHT22;10754;51.106;7.164;2022-11-04T09:22:15;14.40;1.00
21193;DHT22;10754;51.106;7.164;2022-11-04T09:24:41;14.40;1.00
21193;DHT22;10754;51.106;7.164;2022-11-04T09:27:06;14.50;1.00
21193;DHT22;10754;51.106;7.164;2022-11-04T09:29:32;14.60;1.00
21193;DHT22;10754;51.106;7.164;2022-11-04T09:31:59;14.70;1.00
21193;DHT22;10754;51.106;7.164;2022-11-04T09:34:24;14.80;1.00
21193;DHT22;10754;51.106;7.164;2022-11-04T09:36:50;15.00;1.00
21193;DHT22;10754;51.106;7.164;2022-11-04T09:39:18;15.20;1.00
21193;DHT22;10754;51.106;7.164;2022-11-04T09:42:26;15.40;1.00
21193;DHT22;10754;51.106;7.164;2022-11-04T09:45:03;15.60;1.00
21193;DHT22;10754;51.106;7.164;2022-11-04T09:47:31;15.60;1.00
21193;DHT22;10754;51.106;7.164;2022-11-04T09:49:58;15.70;1.00
21193;DHT22;10754;51.106;7.164;2022-11-04T09:52:33;15.80;1.00
21193;DHT22;10754;51.106;7.164;2022-11-04T09:58:19;16.50;1.00
21193;DHT22;10754;51.106;7.164;2022-11-04T10:00:53;16.70;1.00
21193;DHT22;10754;51.106;7.164;2022-11-04T10:06:25;16.80;1.00
21193;DHT22;10754;51.106;7.164;2022-11-04T10:11:56;16.30;1.00
21193;DHT22;10754;51.106;7.164;2022-11-04T10:14:39;16.20;1.00
21193;DHT22;10754;51.106;7.164;2022-11-04T10:20:32;16.30;1.00
21193;DHT22;10754;51.106;7.164;2022-11-04T10:25:42;16.70;1.00
21193;DHT22;10754;51.106;7.164;2022-11-04T10:28:15;16.60;1.00
21193;DHT22;10754;51.106;7.164;2022-11-04T10:30:43;16.60;1.00
21193;DHT22;10754;51.106;7.164;2022-11-04T10:33:32;16.60;1.00
21193;DHT22;10754;51.106;7.164;2022-11-04T10:36:07;16.50;1.00
21193;DHT22;10754;51.106;7.164;2022-11-04T10:38:46;16.50;1.00
21193;DHT22;10754;51.106;7.164;2022-11-04T10:43:44;16.50;1.00
21193;DHT22;10754;51.106;7.164;2022-11-04T10:52:27;17.70;1.00
21193;DHT22;10754;51.106;7.164;2022-11-04T10:54:53;17.90;1.00
21193;DHT22;10754;51.106;7.164;2022-11-04T10:57:21;17.50;1.00
21193;DHT22;10754;51.106;7.164;2022-11-04T11:00:06;17.40;1.00
21193;DHT22;10754;51.106;7.164;2022-11-04T11:02:43;17.40;1.00
21193;DHT22;10754;51.106;7.164;2022-11-04T11:07:43;17.30;1.00
21193;DHT22;10754;51.106;7.164;2022-11-04T11:10:27;17.40;1.00
21193;DHT22;10754;51.106;7.164;2022-11-04T11:17:52;17.30;1.00
21193;DHT22;10754;51.106;7.164;2022-11-04T11:20:23;17.10;1.00
21193;DHT22;10754;51.106;7.164;2022-11-04T11:22:50;17.40;1.00
21193;DHT22;10754;51.106;7.164;2022-11-04T11:25:25;17.70;1.00
21193;DHT22;10754;51.106;7.164;2022-11-04T11:27:55;18.10;1.00
21193;DHT22;10754;51.106;7.164;2022-11-04T11:32:55;17.20;1.00
21193;DHT22;10754;51.106;7.164;2022-11-04T11:35:26;17.00;1.00
21193;DHT22;10754;51.106;7.164;2022-11-04T11:37:53;16.90;1.00
21193;DHT22;10754;51.106;7.164;2022-11-04T11:40:30;16.70;1.00
21193;DHT22;10754;51.106;7.164;2022-11-04T11:42:57;16.60;1.00
21193;DHT22;10754;51.106;7.164;2022-11-04T11:45:24;16.50;1.00
21193;DHT22;10754;51.106;7.164;2022-11-04T11:47:52;16.40;1.00
21193;DHT22;10754;51.106;7.164;2022-11-04T11:50:25;16.30;1.00
21193;DHT22;10754;51.106;7.164;2022-11-04T11:53:15;16.30;1.00
21193;DHT22;10754;51.106;7.164;2022-11-04T11:55:48;16.30;1.00
21193;DHT22;10754;51.106;7.164;2022-11-04T11:58:26;16.20;1.00
21193;DHT22;10754;51.106;7.164;2022-11-04T12:01:05;16.20;1.00
21193;DHT22;10754;51.106;7.164;2022-11-04T12:03:47;16.10;1.00
21193;DHT22;10754;51.106;7.164;2022-11-04T12:09:15;16.00;1.00
21193;DHT22;10754;51.106;7.164;2022-11-04T12:14:52;15.90;1.00
21193;DHT22;10754;51.106;7.164;2022-11-04T12:17:43;15.90;1.00
21193;DHT22;10754;51.106;7.164;2022-11-04T12:20:38;15.90;1.00
21193;DHT22;10754;51.106;7.164;2022-11-04T12:31:56;15.90;1.00
21193;DHT22;10754;51.106;7.164;2022-11-04T12:37:19;15.80;1.00
21193;DHT22;10754;51.106;7.164;2022-11-04T12:48:43;15.80;1.00
21193;DHT22;10754;51.106;7.164;2022-11-04T12:51:19;15.80;1.00
21193;DHT22;10754;51.106;7.164;2022-11-04T12:56:37;15.80;1.00
21193;DHT22;10754;51.106;7.164;2022-11-04T12:59:28;15.80;1.00
21193;DHT22;10754;51.106;7.164;2022-11-04T13:02:01;15.80;1.00
21193;DHT22;10754;51.106;7.164;2022-11-04T13:04:39;15.80;1.00
21193;DHT22;10754;51.106;7.164;2022-11-04T13:10:22;15.80;1.00
21193;DHT22;10754;51.106;7.164;2022-11-04T13:12:51;15.90;1.00
21193;DHT22;10754;51.106;7.164;2022-11-04T13:15:26;15.80;1.00
21193;DHT22;10754;51.106;7.164;2022-11-04T13:18:03;15.90;1.00
21193;DHT22;10754;51.106;7.164;2022-11-04T13:20:43;15.80;1.00
21193;DHT22;10754;51.106;7.164;2022-11-04T13:23:19;15.90;1.00
21193;DHT22;10754;51.106;7.164;2022-11-04T13:25:47;15.90;1.00
21193;DHT22;10754;51.106;7.164;2022-11-04T13:28:15;15.80;1.00
21193;DHT22;10754;51.106;7.164;2022-11-04T13:33:29;15.90;1.00
21193;DHT22;10754;51.106;7.164;2022-11-04T13:36:04;15.90;1.00
21193;DHT22;10754;51.106;7.164;2022-11-04T13:39:21;15.90;1.00
21193;DHT22;10754;51.106;7.164;2022-11-04T13:42:08;16.00;1.00
21193;DHT22;10754;51.106;7.164;2022-11-04T13:44:46;15.90;1.00
21193;DHT22;10754;51.106;7.164;2022-11-04T13:47:36;15.90;1.00
21193;DHT22;10754;51.106;7.164;2022-11-04T13:50:03;15.90;1.00
21193;DHT22;10754;51.106;7.164;2022-11-04T13:52:31;15.80;1.00
21193;DHT22;10754;51.106;7.164;2022-11-04T13:55:00;15.90;1.00
21193;DHT22;10754;51.106;7.164;2022-11-04T13:57:28;15.90;1.00
21193;DHT22;10754;51.106;7.164;2022-11-04T14:15:59;15.90;1.00
21193;DHT22;10754;51.106;7.164;2022-11-04T14:23:27;15.80;1.00
21193;DHT22;10754;51.106;7.164;2022-11-04T14:26:01;15.80;1.00
21193;DHT22;10754;51.106;7.164;2022-11-04T14:28:29;15.70;1.00
21193;DHT22;10754;51.106;7.164;2022-11-04T14:31:06;15.60;1.00
21193;DHT22;10754;51.106;7.164;2022-11-04T14:33:35;15.60;1.00
21193;DHT22;10754;51.106;7.164;2022-11-04T14:46:43;15.70;1.00
21193;DHT22;10754;51.106;7.164;2022-11-04T14:52:18;15.80;1.00
21193;DHT22;10754;51.106;7.164;2022-11-04T14:54:44;15.70;1.00
21193;DHT22;10754;51.106;7.164;2022-11-04T14:57:19;15.70;1.00
21193;DHT22;10754;51.106;7.164;2022-11-04T14:59:45;15.70;1.00
21193;DHT22;10754;51.106;7.164;2022-11-04T15:02:23;15.70;1.00
21193;DHT22;10754;51.106;7.164;2022-11-04T15:04:56;15.70;1.00
21193;DHT22;10754;51.106;7.164;2022-11-04T15:09:57;15.70;1.00
21193;DHT22;10754;51.106;7.164;2022-11-04T15:12:22;15.60;1.00
21193;DHT22;10754;51.106;7.164;2022-11-04T15:15:28;15.60;1.00
21193;DHT22;10754;51.106;7.164;2022-11-04T15:18:18;15.60;1.00
21193;DHT22;10754;51.106;7.164;2022-11-04T15:20:47;15.60;1.00
21193;DHT22;10754;51.106;7.164;2022-11-04T15:23:16;15.60;1.00
21193;DHT22;10754;51.106;7.164;2022-11-04T15:25:49;15.60;1.00
21193;DHT22;10754;51.106;7.164;2022-11-04T15:28:37;15.60;1.00
21193;DHT22;10754;51.106;7.164;2022-11-04T15:33:49;15.60;1.00
21193;DHT22;10754;51.106;7.164;2022-11-04T15:36:18;15.70;1.00
21193;DHT22;10754;51.106;7.164;2022-11-04T15:38:51;15.60;1.00
21193;DHT22;10754;51.106;7.164;2022-11-04T15:41:21;15.60;1.00
21193;DHT22;10754;51.106;7.164;2022-11-04T15:44:17;15.50;1.00
21193;DHT22;10754;51.106;7.164;2022-11-04T15:46:52;15.50;1.00
21193;DHT22;10754;51.106;7.164;2022-11-04T15:49:24;15.50;1.00
21193;DHT22;10754;51.106;7.164;2022-11-04T15:51:52;15.50;1.00
21193;DHT22;10754;51.106;7.164;2022-11-04T15:54:22;15.50;1.00
21193;DHT22;10754;51.106;7.164;2022-11-04T15:56:52;15.50;1.00
21193;DHT22;10754;51.106;7.164;2022-11-04T15:59:25;15.50;1.00
21193;DHT22;10754;51.106;7.164;2022-11-04T16:01:52;15.50;1.00
21193;DHT22;10754;51.106;7.164;2022-11-04T16:04:21;15.40;1.00
21193;DHT22;10754;51.106;7.164;2022-11-04T16:09:30;15.40;1.00
21193;DHT22;10754;51.106;7.164;2022-11-04T16:14:29;15.30;1.00
21193;DHT22;10754;51.106;7.164;2022-11-04T16:16:55;15.20;1.00
21193;DHT22;10754;51.106;7.164;2022-11-04T16:19:29;15.20;1.00
21193;DHT22;10754;51.106;7.164;2022-11-04T16:22:03;15.30;1.00
21193;DHT22;10754;51.106;7.164;2022-11-04T16:24:32;15.30;1.00
21193;DHT22;10754;51.106;7.164;2022-11-04T16:26:59;15.20;1.00
21193;DHT22;10754;51.106;7.164;2022-11-04T16:29:30;15.20;1.00
21193;DHT22;10754;51.106;7.164;2022-11-04T16:34:45;15.20;1.00
21193;DHT22;10754;51.106;7.164;2022-11-04T16:37:12;15.10;1.00
21193;DHT22;10754;51.106;7.164;2022-11-04T16:39:38;15.10;1.00
21193;DHT22;10754;51.106;7.164;2022-11-04T16:42:04;15.20;1.00
21193;DHT22;10754;51.106;7.164;2022-11-04T16:44:31;15.10;1.00
21193;DHT22;10754;51.106;7.164;2022-11-04T16:46:57;15.10;1.00
21193;DHT22;10754;51.106;7.164;2022-11-04T16:49:24;15.10;1.00
21193;DHT22;10754;51.106;7.164;2022-11-04T16:51:55;15.10;1.00
21193;DHT22;10754;51.106;7.164;2022-11-04T16:54:21;15.10;1.00
21193;DHT22;10754;51.106;7.164;2022-11-04T16:56:47;15.00;1.00
21193;DHT22;10754;51.106;7.164;2022-11-04T16:59:13;15.00;1.00
21193;DHT22;10754;51.106;7.164;2022-11-04T17:01:38;15.00;1.00
21193;DHT22;10754;51.106;7.164;2022-11-04T17:04:07;15.00;1.00
21193;DHT22;10754;51.106;7.164;2022-11-04T17:06:34;15.00;1.00
21193;DHT22;10754;51.106;7.164;2022-11-04T17:08:59;14.90;1.00
21193;DHT22;10754;51.106;7.164;2022-11-04T17:11:26;14.90;1.00
21193;DHT22;10754;51.106;7.164;2022-11-04T17:13:54;14.90;1.00
21193;DHT22;10754;51.106;7.164;2022-11-04T17:16:20;14.90;1.00
21193;DHT22;10754;51.106;7.164;2022-11-04T17:18:45;14.80;1.00
21193;DHT22;10754;51.106;7.164;2022-11-04T17:21:13;14.80;1.00
21193;DHT22;10754;51.106;7.164;2022-11-04T17:23:41;14.70;1.00
21193;DHT22;10754;51.106;7.164;2022-11-04T17:26:08;14.80;1.00
21193;DHT22;10754;51.106;7.164;2022-11-04T17:28:34;14.70;1.00
21193;DHT22;10754;51.106;7.164;2022-11-04T17:31:01;14.80;1.00
21193;DHT22;10754;51.106;7.164;2022-11-04T17:33:26;14.80;1.00
21193;DHT22;10754;51.106;7.164;2022-11-04T17:35:52;14.80;1.00
21193;DHT22;10754;51.106;7.164;2022-11-04T17:38:18;14.80;1.00
21193;DHT22;10754;51.106;7.164;2022-11-04T17:40:44;14.80;1.00
21193;DHT22;10754;51.106;7.164;2022-11-04T17:43:29;14.80;1.00
21193;DHT22;10754;51.106;7.164;2022-11-04T17:46:13;14.80;1.00
21193;DHT22;10754;51.106;7.164;2022-11-04T17:48:57;14.80;1.00
21193;DHT22;10754;51.106;7.164;2022-11-04T17:51:23;14.80;1.00
21193;DHT22;10754;51.106;7.164;2022-11-04T17:53:49;14.70;1.00
21193;DHT22;10754;51.106;7.164;2022-11-04T17:56:16;14.70;1.00
21193;DHT22;10754;51.106;7.164;2022-11-04T17:58:42;14.70;1.00
21193;DHT22;10754;51.106;7.164;2022-11-04T18:01:08;14.60;1.00
21193;DHT22;10754;51.106;7.164;2022-11-04T18:03:34;14.60;1.00
21193;DHT22;10754;51.106;7.164;2022-11-04T18:06:00;14.60;1.00
21193;DHT22;10754;51.106;7.164;2022-11-04T18:08:27;14.60;1.00
21193;DHT22;10754;51.106;7.164;2022-11-04T18:11:00;14.60;1.00
21193;DHT22;10754;51.106;7.164;2022-11-04T18:13:26;14.70;1.00
21193;DHT22;10754;51.106;7.164;2022-11-04T18:15:52;14.60;1.00
21193;DHT22;10754;51.106;7.164;2022-11-04T18:18:17;14.60;1.00
21193;DHT22;10754;51.106;7.164;2022-11-04T18:20:43;14.50;1.00
21193;DHT22;10754;51.106;7.164;2022-11-04T18:23:09;14.50;1.00
21193;DHT22;10754;51.106;7.164;2022-11-04T18:25:36;14.40;1.00
21193;DHT22;10754;51.106;7.164;2022-11-04T18:28:02;14.40;1.00
21193;DHT22;10754;51.106;7.164;2022-11-04T18:30:28;14.30;1.00
21193;DHT22;10754;51.106;7.164;2022-11-04T18:32:53;14.30;1.00
21193;DHT22;10754;51.106;7.164;2022-11-04T18:35:19;14.20;1.00
21193;DHT22;10754;51.106;7.164;2022-11-04T18:37:44;14.20;1.00
21193;DHT22;10754;51.106;7.164;2022-11-04T18:40:10;14.20;1.00
21193;DHT22;10754;51.106;7.164;2022-11-04T18:42:35;14.20;1.00